Time;durP1;ratioP1;P1;durP2;ratioP2;P2;SDS_P1;SDS_P2;PMS_P1;PMS_P2;Temp;Humidity;BMP_temperature;BMP_pressure;BME280_temperature;BME280_humidity;BME280_pressure;Samples;Min_cycle;Max_cycle;Signal;HPM_P1;HPM_P2
2021/06/27 00:00:40;;;;;;;4.28;2.97;;;;;;;;;;5023514;28;20081;-61
2021/06/27 00:03:05;;;;;;;;;;;;;;;;;;5024364;28;20038;-61
2021/06/27 00:05:32;;;;;;;3.72;2.95;;;;;;;;;;5031308;28;19918;-61
2021/06/27 00:07:59;;;;;;;2.80;2.30;;;;;;;;;;5011916;28;20030;-61
2021/06/27 00:10:28;;;;;;;3.25;2.72;;;;;;;;;;5045448;28;20053;-62
2021/06/27 00:12:54;;;;;;;2.92;2.63;;;;;;;;;;5031451;28;20064;-62
2021/06/27 00:15:22;;;;;;;3.75;3.03;;;;;;;;;;5014509;28;20038;-62
2021/06/27 00:17:49;;;;;;;3.75;2.92;;;;;;;;;;5030175;28;20457;-62
2021/06/27 00:20:19;;;;;;;3.05;2.53;;;;;;;;;;5023935;28;21076;-62
2021/06/27 00:22:44;;;;;;;3.20;2.65;;;;;;;;;;5023300;28;20038;-62
2021/06/27 00:25:11;;;;;;;3.63;2.70;;;;;;;;;;5032196;28;20034;-62
2021/06/27 00:27:40;;;;;;;4.03;2.70;;;;;;;;;;5039408;28;20555;-62
2021/06/27 00:30:08;;;;;;;2.95;2.40;;;;;;;;;;5031136;28;20406;-62
2021/06/27 00:32:33;;;;;;;3.58;3.03;;;;;;;;;;5032111;28;20041;-62
2021/06/27 00:34:59;;;;;;;3.78;2.88;;;;;;;;;;5033081;28;20093;-62
2021/06/27 00:37:24;;;;;;;3.55;2.97;;;;;;;;;;5030785;28;20033;-62
2021/06/27 00:39:50;;;;;;;3.28;2.67;;;;;;;;;;5032975;28;20038;-62
2021/06/27 00:42:15;;;;;;;3.35;2.80;;;;;;;;;;5030757;28;20030;-62
2021/06/27 00:44:41;;;;;;;3.70;3.03;;;;;;;;;;5031646;28;20585;-62
2021/06/27 00:47:06;;;;;;;3.08;2.70;;;;;;;;;;5030877;28;20092;-62
2021/06/27 00:49:32;;;;;;;3.17;2.58;;;;;;;;;;5016925;28;20490;-63
2021/06/27 00:51:57;;;;;;;4.65;3.28;;;;;;;;;;5030971;28;20616;-63
2021/06/27 00:54:22;;;;;;;3.42;3.00;;;;;;;;;;5030142;28;20046;-63
2021/06/27 00:56:48;;;;;;;4.80;3.17;;;;;;;;;;5014365;28;20498;-62
2021/06/27 00:59:14;;;;;;;3.58;2.75;;;;;;;;;;5029770;28;20034;-63
2021/06/27 01:01:39;;;;;;;3.15;2.60;;;;;;;;;;5031703;28;20053;-62
2021/06/27 01:04:05;;;;;;;3.17;2.72;;;;;;;;;;5030431;28;20034;-62
2021/06/27 01:06:30;;;;;;;4.00;2.80;;;;;;;;;;5046112;28;20041;-62
2021/06/27 01:08:55;;;;;;;3.42;2.80;;;;;;;;;;5013104;28;20052;-62
2021/06/27 01:11:21;;;;;;;3.60;2.70;;;;;;;;;;5022187;28;20045;-62
2021/06/27 01:13:46;;;;;;;3.45;2.83;;;;;;;;;;5030150;28;20046;-63
2021/06/27 01:16:12;;;;;;;3.67;2.92;;;;;;;;;;5031315;28;20509;-62
2021/06/27 01:18:37;;;;;;;3.60;2.80;;;;;;;;;;5029818;28;20037;-62
2021/06/27 01:21:07;;;;;;;3.95;2.80;;;;;;;;;;5012800;28;20113;-62
2021/06/27 01:23:32;;;;;;;4.47;3.30;;;;;;;;;;5030014;28;20033;-63
2021/06/27 01:25:58;;;;;;;4.85;3.53;;;;;;;;;;5016810;28;20037;-62
2021/06/27 01:28:23;;;;;;;5.43;3.25;;;;;;;;;;5010343;28;20041;-63
2021/06/27 01:30:49;;;;;;;3.33;2.60;;;;;;;;;;5032341;28;20040;-62
2021/06/27 01:33:17;;;;;;;3.20;2.67;;;;;;;;;;5029163;28;20123;-62
2021/06/27 01:35:43;;;;;;;3.13;2.50;;;;;;;;;;5031104;28;20061;-62
2021/06/27 01:38:11;;;;;;;3.33;2.72;;;;;;;;;;5031963;28;20038;-62
2021/06/27 01:40:37;;;;;;;3.75;2.88;;;;;;;;;;5045700;28;20038;-62
2021/06/27 01:43:19;;;;;;;2.83;2.45;;;;;;;;;;5020397;28;20045;-62
2021/06/27 01:45:57;;;;;;;2.53;2.30;;;;;;;;;;5020844;28;20041;-63
2021/06/27 01:48:23;;;;;;;2.97;2.45;;;;;;;;;;5016945;28;20622;-62
2021/06/27 01:50:50;;;;;;;3.85;2.90;;;;;;;;;;5013141;28;20057;-62
2021/06/27 01:53:18;;;;;;;3.60;2.95;;;;;;;;;;5045268;28;20046;-62
2021/06/27 01:55:44;;;;;;;3.10;2.50;;;;;;;;;;5022830;28;20040;-62
2021/06/27 01:58:10;;;;;;;2.95;2.40;;;;;;;;;;5030775;28;20487;-62
2021/06/27 02:00:36;;;;;;;3.55;2.80;;;;;;;;;;5029889;28;20041;-62
2021/06/27 02:03:03;;;;;;;2.80;2.40;;;;;;;;;;5045655;28;20041;-62
2021/06/27 02:05:29;;;;;;;3.50;2.38;;;;;;;;;;5030864;28;20411;-62
2021/06/27 02:07:57;;;;;;;3.13;2.60;;;;;;;;;;5031573;28;20045;-63
2021/06/27 02:10:24;;;;;;;3.25;2.55;;;;;;;;;;5028940;28;20037;-62
2021/06/27 02:12:51;;;;;;;3.50;2.97;;;;;;;;;;5029051;28;20125;-62
2021/06/27 02:15:17;;;;;;;3.55;2.70;;;;;;;;;;5046662;28;20049;-63
2021/06/27 02:18:01;;;;;;;2.80;2.50;;;;;;;;;;5045238;28;20041;-63
2021/06/27 02:20:27;;;;;;;2.75;2.45;;;;;;;;;;5020521;28;20065;-62
2021/06/27 02:22:53;;;;;;;4.10;2.75;;;;;;;;;;5022522;28;20037;-63
2021/06/27 02:25:18;;;;;;;3.10;2.47;;;;;;;;;;5013596;28;20095;-62
2021/06/27 02:27:44;;;;;;;3.40;2.70;;;;;;;;;;5028930;28;20061;-62
2021/06/27 02:30:10;;;;;;;3.42;2.63;;;;;;;;;;5030462;28;20413;-62
2021/06/27 02:32:36;;;;;;;3.13;2.58;;;;;;;;;;5031698;28;20956;-63
2021/06/27 02:35:02;;;;;;;3.42;2.80;;;;;;;;;;5031348;28;20039;-63
2021/06/27 02:37:27;;;;;;;3.28;2.67;;;;;;;;;;5029420;28;20108;-63
2021/06/27 02:39:53;;;;;;;2.50;2.30;;;;;;;;;;5028732;28;20037;-62
2021/06/27 02:42:19;;;;;;;3.15;2.50;;;;;;;;;;5020901;28;20092;-62
2021/06/27 02:44:44;;;;;;;3.63;2.67;;;;;;;;;;5030752;28;20034;-62
2021/06/27 02:47:10;;;;;;;2.80;2.15;;;;;;;;;;5032206;28;20033;-62
2021/06/27 02:49:35;;;;;;;2.72;2.42;;;;;;;;;;5034134;28;20029;-62
2021/06/27 02:52:02;;;;;;;3.70;2.50;;;;;;;;;;5018604;28;20041;-62
2021/06/27 02:54:27;;;;;;;3.47;2.50;;;;;;;;;;5033753;28;20049;-62
2021/06/27 02:56:53;;;;;;;3.13;2.40;;;;;;;;;;5033501;28;20767;-62
2021/06/27 02:59:18;;;;;;;2.97;2.45;;;;;;;;;;5034254;28;20041;-62
2021/06/27 03:01:44;;;;;;;3.28;2.67;;;;;;;;;;5034284;28;20105;-62
2021/06/27 03:04:09;;;;;;;3.47;2.60;;;;;;;;;;5032610;28;20038;-63
2021/06/27 03:06:35;;;;;;;2.80;2.50;;;;;;;;;;5033797;28;20034;-62
2021/06/27 03:09:00;;;;;;;3.78;2.55;;;;;;;;;;5048753;28;20038;-62
2021/06/27 03:11:26;;;;;;;2.95;2.45;;;;;;;;;;5034700;28;20068;-62
2021/06/27 03:13:53;;;;;;;3.35;2.80;;;;;;;;;;5033904;28;20555;-62
2021/06/27 03:16:18;;;;;;;2.80;2.50;;;;;;;;;;5018254;28;20104;-62
2021/06/27 03:18:44;;;;;;;2.85;2.53;;;;;;;;;;5033893;28;20421;-62
2021/06/27 03:21:09;;;;;;;3.78;2.97;;;;;;;;;;5031712;28;20041;-62
2021/06/27 03:23:34;;;;;;;3.17;2.72;;;;;;;;;;5031812;28;20036;-62
2021/06/27 03:26:00;;;;;;;4.20;2.83;;;;;;;;;;5016942;28;20056;-62
2021/06/27 03:28:27;;;;;;;3.08;2.78;;;;;;;;;;5022708;28;20026;-62
2021/06/27 03:30:53;;;;;;;3.22;2.70;;;;;;;;;;5032034;28;20909;-62
2021/06/27 03:33:18;;;;;;;4.85;2.80;;;;;;;;;;5033119;28;20081;-62
2021/06/27 03:35:44;;;;;;;3.40;2.80;;;;;;;;;;5031553;28;20042;-62
2021/06/27 03:38:21;;;;;;;3.38;3.05;;;;;;;;;;5031297;28;20038;-62
2021/06/27 03:40:47;;;;;;;3.47;2.78;;;;;;;;;;5047457;28;20581;-63
2021/06/27 03:43:12;;;;;;;4.13;2.78;;;;;;;;;;5033608;28;20457;-62
2021/06/27 03:45:38;;;;;;;3.20;2.78;;;;;;;;;;5031998;28;20566;-62
2021/06/27 03:48:05;;;;;;;4.28;2.72;;;;;;;;;;5013852;28;20037;-62
2021/06/27 03:50:30;;;;;;;3.30;2.53;;;;;;;;;;5031548;28;20037;-62
2021/06/27 03:52:56;;;;;;;3.35;2.35;;;;;;;;;;5032539;28;20046;-62
2021/06/27 03:55:21;;;;;;;3.42;2.60;;;;;;;;;;5030322;28;20060;-62
2021/06/27 03:57:48;;;;;;;3.17;2.50;;;;;;;;;;5033845;28;20029;-62
2021/06/27 04:00:14;;;;;;;3.50;2.72;;;;;;;;;;5023218;28;20038;-62
2021/06/27 04:02:40;;;;;;;2.95;2.58;;;;;;;;;;5031899;28;20520;-62
2021/06/27 04:05:08;;;;;;;2.88;2.30;;;;;;;;;;5048210;28;20042;-62
2021/06/27 04:07:33;;;;;;;3.17;2.70;;;;;;;;;;5032331;28;20084;-62
2021/06/27 04:09:58;;;;;;;4.00;2.67;;;;;;;;;;5032100;28;21801;-62
2021/06/27 04:12:24;;;;;;;4.00;3.00;;;;;;;;;;5030499;28;20128;-62
2021/06/27 04:14:50;;;;;;;3.40;2.67;;;;;;;;;;5029595;28;20072;-62
2021/06/27 04:17:18;;;;;;;4.28;2.78;;;;;;;;;;5003715;28;20124;-62
2021/06/27 04:19:43;;;;;;;3.92;3.17;;;;;;;;;;5029145;28;20042;-62
2021/06/27 04:22:09;;;;;;;3.88;2.92;;;;;;;;;;5033453;28;20029;-62
2021/06/27 04:24:34;;;;;;;3.78;2.88;;;;;;;;;;5016764;28;20030;-62
2021/06/27 04:27:00;;;;;;;3.63;3.22;;;;;;;;;;5029613;28;20033;-62
2021/06/27 04:29:25;;;;;;;3.70;2.88;;;;;;;;;;5030667;28;20053;-62
2021/06/27 04:31:51;;;;;;;4.97;3.00;;;;;;;;;;5032524;28;20217;-62
2021/06/27 04:34:18;;;;;;;3.72;2.90;;;;;;;;;;5016586;28;20053;-62
2021/06/27 04:36:43;;;;;;;3.78;2.67;;;;;;;;;;5031629;28;20041;-62
2021/06/27 04:39:10;;;;;;;3.65;2.90;;;;;;;;;;5031148;28;20088;-62
2021/06/27 04:41:36;;;;;;;3.92;3.10;;;;;;;;;;5031788;28;20081;-63
2021/06/27 04:44:02;;;;;;;3.75;2.72;;;;;;;;;;5046263;28;20208;-62
2021/06/27 04:46:27;;;;;;;4.35;2.80;;;;;;;;;;5039183;28;20116;-62
2021/06/27 04:48:53;;;;;;;3.85;3.05;;;;;;;;;;5031627;28;20111;-62
2021/06/27 04:51:21;;;;;;;4.45;3.10;;;;;;;;;;5030755;28;20049;-62
2021/06/27 04:53:47;;;;;;;3.80;3.10;;;;;;;;;;5029932;28;20289;-62
2021/06/27 04:56:12;;;;;;;3.83;2.92;;;;;;;;;;5032017;28;20546;-63
2021/06/27 04:58:38;;;;;;;4.45;3.00;;;;;;;;;;5030792;28;20159;-62
2021/06/27 05:01:03;;;;;;;4.15;2.78;;;;;;;;;;5012936;28;20042;-62
2021/06/27 05:03:29;;;;;;;4.35;3.13;;;;;;;;;;5031404;28;20025;-62
2021/06/27 05:05:54;;;;;;;3.80;2.88;;;;;;;;;;5032831;28;20040;-62
2021/06/27 05:08:19;;;;;;;4.15;3.22;;;;;;;;;;5028150;28;20041;-63
2021/06/27 05:10:45;;;;;;;3.88;3.30;;;;;;;;;;5019031;28;20442;-62
2021/06/27 05:13:10;;;;;;;3.92;3.38;;;;;;;;;;5032467;28;20048;-62
2021/06/27 05:15:36;;;;;;;4.30;3.28;;;;;;;;;;5017937;28;20985;-63
2021/06/27 05:18:03;;;;;;;3.22;2.70;;;;;;;;;;5031233;28;20494;-62
2021/06/27 05:20:28;;;;;;;4.38;3.03;;;;;;;;;;5032133;28;20064;-63
2021/06/27 05:22:54;;;;;;;3.50;2.90;;;;;;;;;;5030336;28;20033;-62
2021/06/27 05:25:19;;;;;;;3.40;2.63;;;;;;;;;;5030612;28;20029;-62
2021/06/27 05:27:45;;;;;;;3.63;3.00;;;;;;;;;;5012865;28;20584;-62
2021/06/27 05:30:11;;;;;;;3.80;3.08;;;;;;;;;;5032027;28;20501;-62
2021/06/27 05:32:36;;;;;;;4.55;3.08;;;;;;;;;;5045311;28;20041;-62
2021/06/27 05:35:03;;;;;;;4.00;2.75;;;;;;;;;;5029936;28;20053;-62
2021/06/27 05:37:29;;;;;;;3.15;2.60;;;;;;;;;;5030475;28;20120;-62
2021/06/27 05:39:54;;;;;;;3.78;2.75;;;;;;;;;;5015532;28;20356;-62
2021/06/27 05:42:20;;;;;;;2.85;2.55;;;;;;;;;;5029313;28;20452;-63
2021/06/27 05:44:46;;;;;;;3.40;2.90;;;;;;;;;;5046287;28;20429;-62
2021/06/27 05:47:11;;;;;;;3.50;2.80;;;;;;;;;;5045060;28;20040;-62
2021/06/27 05:49:37;;;;;;;4.30;2.80;;;;;;;;;;5030266;28;20037;-62
2021/06/27 05:52:02;;;;;;;3.75;2.92;;;;;;;;;;5030625;28;20389;-62
2021/06/27 05:54:28;;;;;;;4.00;2.80;;;;;;;;;;5030870;28;20042;-62
2021/06/27 05:56:53;;;;;;;3.95;2.80;;;;;;;;;;5029767;28;20042;-62
2021/06/27 05:59:19;;;;;;;3.33;2.75;;;;;;;;;;5002581;28;20030;-62
2021/06/27 06:01:44;;;;;;;4.15;2.72;;;;;;;;;;5045061;28;20880;-62
2021/06/27 06:04:10;;;;;;;3.22;2.65;;;;;;;;;;5029688;28;20040;-62
2021/06/27 06:06:35;;;;;;;4.22;2.85;;;;;;;;;;5030260;28;20038;-62
2021/06/27 06:09:01;;;;;;;3.90;2.72;;;;;;;;;;5021483;28;20041;-63
2021/06/27 06:11:27;;;;;;;3.40;2.70;;;;;;;;;;5027885;28;20040;-62
2021/06/27 06:13:53;;;;;;;3.47;2.83;;;;;;;;;;5031318;28;20509;-63
2021/06/27 06:16:18;;;;;;;3.00;2.40;;;;;;;;;;5029684;28;20041;-63
2021/06/27 06:18:44;;;;;;;3.00;2.50;;;;;;;;;;5029555;28;20601;-62
2021/06/27 06:21:14;;;;;;;3.42;2.63;;;;;;;;;;5030013;28;20061;-63
2021/06/27 06:23:40;;;;;;;2.85;2.47;;;;;;;;;;5028879;28;20038;-62
2021/06/27 06:26:06;;;;;;;2.13;1.92;;;;;;;;;;5015932;28;20034;-61
2021/06/27 06:28:31;;;;;;;2.13;1.92;;;;;;;;;;5010594;28;20486;-61
2021/06/27 06:30:57;;;;;;;2.15;1.95;;;;;;;;;;5010792;28;20038;-61
2021/06/27 06:33:22;;;;;;;2.63;2.05;;;;;;;;;;5030257;28;20465;-61
2021/06/27 06:35:48;;;;;;;2.85;2.15;;;;;;;;;;5044152;28;20497;-62
2021/06/27 06:38:13;;;;;;;2.47;2.28;;;;;;;;;;5029883;28;20453;-61
2021/06/27 06:40:39;;;;;;;3.85;2.30;;;;;;;;;;5017110;28;20033;-62
2021/06/27 06:43:05;;;;;;;2.72;2.20;;;;;;;;;;5029813;28;20069;-62
2021/06/27 06:45:32;;;;;;;2.40;2.08;;;;;;;;;;5030069;28;20080;-61
2021/06/27 06:47:57;;;;;;;2.97;2.33;;;;;;;;;;5029050;28;20034;-62
2021/06/27 06:50:23;;;;;;;3.10;2.50;;;;;;;;;;5021394;28;20391;-62
2021/06/27 06:52:49;;;;;;;2.85;2.10;;;;;;;;;;5030396;28;20030;-62
2021/06/27 06:55:15;;;;;;;2.50;2.03;;;;;;;;;;5029558;28;20482;-62
2021/06/27 06:57:40;;;;;;;2.60;2.03;;;;;;;;;;5043958;28;20045;-62
2021/06/27 07:00:08;;;;;;;2.58;2.30;;;;;;;;;;5004373;28;20049;-62
2021/06/27 07:02:33;;;;;;;2.60;1.90;;;;;;;;;;5029879;28;20049;-62
2021/06/27 07:05:00;;;;;;;1.92;1.73;;;;;;;;;;5029726;28;20081;-62
2021/06/27 07:07:25;;;;;;;2.20;2.00;;;;;;;;;;5029840;28;20041;-62
2021/06/27 07:09:51;;;;;;;1.88;1.77;;;;;;;;;;5015207;28;20045;-62
2021/06/27 07:12:16;;;;;;;2.83;2.28;;;;;;;;;;5032857;28;20045;-62
2021/06/27 07:14:43;;;;;;;2.72;1.65;;;;;;;;;;4993866;28;20076;-62
2021/06/27 07:17:09;;;;;;;3.05;2.30;;;;;;;;;;5028380;28;20089;-61
2021/06/27 07:19:35;;;;;;;2.17;1.90;;;;;;;;;;5030445;28;20533;-62
2021/06/27 07:22:00;;;;;;;2.20;1.85;;;;;;;;;;5029298;28;20124;-62
2021/06/27 07:24:26;;;;;;;2.72;1.98;;;;;;;;;;5029668;28;20080;-62
2021/06/27 07:26:51;;;;;;;2.08;1.77;;;;;;;;;;5029775;28;20093;-62
2021/06/27 07:29:16;;;;;;;2.30;1.80;;;;;;;;;;5013911;28;20415;-61
2021/06/27 07:31:42;;;;;;;2.00;1.80;;;;;;;;;;5030049;28;20466;-62
2021/06/27 07:34:07;;;;;;;2.03;1.85;;;;;;;;;;5016716;28;20052;-62
2021/06/27 07:36:33;;;;;;;3.13;2.42;;;;;;;;;;5034954;28;20045;-62
2021/06/27 07:38:58;;;;;;;2.88;2.10;;;;;;;;;;5017224;28;20025;-62
2021/06/27 07:41:24;;;;;;;2.10;1.85;;;;;;;;;;5030427;28;20081;-61
2021/06/27 07:43:51;;;;;;;2.00;1.60;;;;;;;;;;5031424;28;20025;-65
2021/06/27 07:46:17;;;;;;;2.05;1.85;;;;;;;;;;5032206;28;20046;-65
2021/06/27 07:48:43;;;;;;;2.22;1.90;;;;;;;;;;5017480;28;20072;-65
2021/06/27 07:51:12;;;;;;;2.63;2.22;;;;;;;;;;5031062;28;20032;-64
2021/06/27 07:53:37;;;;;;;2.25;2.05;;;;;;;;;;5031743;28;20037;-65
2021/06/27 07:56:03;;;;;;;2.10;1.90;;;;;;;;;;5047991;28;20485;-64
2021/06/27 07:58:29;;;;;;;3.13;1.83;;;;;;;;;;5033011;28;20545;-64
2021/06/27 08:00:54;;;;;;;2.42;1.95;;;;;;;;;;5034269;28;20029;-64
2021/06/27 08:03:20;;;;;;;2.50;2.10;;;;;;;;;;5031922;28;20049;-64
2021/06/27 08:05:45;;;;;;;1.98;1.80;;;;;;;;;;5047818;28;20527;-64
2021/06/27 08:08:11;;;;;;;2.33;1.90;;;;;;;;;;5033093;28;20116;-65
2021/06/27 08:10:36;;;;;;;2.78;2.10;;;;;;;;;;5031333;28;20475;-64
2021/06/27 08:13:02;;;;;;;2.03;1.60;;;;;;;;;;5031850;28;20656;-63
2021/06/27 08:15:28;;;;;;;2.08;1.85;;;;;;;;;;5032924;28;20073;-64
2021/06/27 08:17:54;;;;;;;2.42;2.00;;;;;;;;;;5031925;28;20474;-64
2021/06/27 08:20:21;;;;;;;2.00;1.70;;;;;;;;;;5035056;28;20037;-64
2021/06/27 08:22:47;;;;;;;1.77;1.67;;;;;;;;;;5031734;28;20466;-64
2021/06/27 08:25:13;;;;;;;1.67;1.58;;;;;;;;;;5030005;28;20486;-65
2021/06/27 08:27:38;;;;;;;2.15;1.88;;;;;;;;;;5033898;28;20029;-64
2021/06/27 08:30:08;;;;;;;2.22;1.73;;;;;;;;;;5032784;28;20038;-64
2021/06/27 08:32:34;;;;;;;2.22;1.60;;;;;;;;;;5031387;28;20029;-64
2021/06/27 08:34:59;;;;;;;2.10;1.65;;;;;;;;;;5032589;28;20034;-64
2021/06/27 08:37:25;;;;;;;1.80;1.67;;;;;;;;;;5015321;28;20768;-64
2021/06/27 08:39:51;;;;;;;1.88;1.55;;;;;;;;;;5016762;28;21128;-64
2021/06/27 08:42:20;;;;;;;1.52;1.42;;;;;;;;;;5032745;28;20062;-64
2021/06/27 08:44:46;;;;;;;1.98;1.73;;;;;;;;;;5020618;28;20040;-64
2021/06/27 08:47:15;;;;;;;2.10;1.70;;;;;;;;;;5032178;28;20034;-64
2021/06/27 08:49:41;;;;;;;1.90;1.70;;;;;;;;;;5030410;28;20018;-64
2021/06/27 08:52:13;;;;;;;2.53;1.98;;;;;;;;;;5016363;28;20065;-64
2021/06/27 08:54:38;;;;;;;1.83;1.55;;;;;;;;;;5030355;28;20241;-64
2021/06/27 08:57:04;;;;;;;1.80;1.70;;;;;;;;;;5046845;28;20049;-64
2021/06/27 08:59:31;;;;;;;2.42;1.80;;;;;;;;;;5029594;28;20486;-64
2021/06/27 09:02:00;;;;;;;2.05;1.70;;;;;;;;;;5018842;28;20449;-64
2021/06/27 09:04:26;;;;;;;1.50;1.40;;;;;;;;;;5045493;28;20117;-64
2021/06/27 09:06:52;;;;;;;2.05;1.67;;;;;;;;;;5014948;28;20498;-64
2021/06/27 09:09:19;;;;;;;2.00;1.80;;;;;;;;;;5030635;28;20038;-64
2021/06/27 09:12:05;;;;;;;1.70;1.60;;;;;;;;;;5030855;28;20034;-64
2021/06/27 09:14:36;;;;;;;2.10;1.75;;;;;;;;;;5045028;28;21131;-65
2021/06/27 09:17:12;;;;;;;1.73;1.63;;;;;;;;;;5005236;28;20037;-65
2021/06/27 09:19:52;;;;;;;2.47;1.90;;;;;;;;;;5031511;28;20153;-64
2021/06/27 09:22:40;;;;;;;1.60;1.50;;;;;;;;;;5029667;28;20048;-64
2021/06/27 09:25:25;;;;;;;2.28;1.90;;;;;;;;;;5032188;28;20041;-65
2021/06/27 09:28:16;;;;;;;6.78;1.95;;;;;;;;;;5023268;28;20529;-65
2021/06/27 09:30:47;;;;;;;8.27;2.63;;;;;;;;;;5021701;28;20065;-64
2021/06/27 09:33:18;;;;;;;10.75;2.30;;;;;;;;;;5045591;28;21356;-65
2021/06/27 09:35:56;;;;;;;5.13;2.00;;;;;;;;;;5036032;28;20556;-65
2021/06/27 09:38:37;;;;;;;4.60;1.95;;;;;;;;;;5030568;28;20037;-64
2021/06/27 09:41:31;;;;;;;5.65;2.40;;;;;;;;;;5030171;28;20546;-65
2021/06/27 09:43:57;;;;;;;5.70;2.17;;;;;;;;;;5047186;28;20040;-65
2021/06/27 09:46:39;;;;;;;5.72;2.30;;;;;;;;;;5031507;28;20440;-65
2021/06/27 09:49:09;;;;;;;;;;;;;;;;;;5007298;28;20501;-64
2021/06/27 09:51:36;;;;;;;10.60;3.28;;;;;;;;;;5030888;28;20012;-65
2021/06/27 09:54:11;;;;;;;22.05;6.45;;;;;;;;;;5029711;28;20046;-65
2021/06/27 09:56:37;;;;;;;19.38;6.05;;;;;;;;;;5022383;28;20272;-65
2021/06/27 09:59:05;;;;;;;17.17;6.25;;;;;;;;;;5012199;28;20021;-64
2021/06/27 10:01:32;;;;;;;20.77;6.82;;;;;;;;;;5031007;28;20149;-64
2021/06/27 10:04:01;;;;;;;20.02;7.00;;;;;;;;;;5044503;28;20663;-67
2021/06/27 10:06:31;;;;;;;23.13;7.78;;;;;;;;;;5031796;28;20030;-65
2021/06/27 10:09:11;;;;;;;22.92;7.97;;;;;;;;;;5021885;28;20030;-66
2021/06/27 10:11:37;;;;;;;18.48;7.68;;;;;;;;;;5021249;28;20034;-66
2021/06/27 10:14:09;;;;;;;16.73;6.68;;;;;;;;;;5044751;28;20041;-65
2021/06/27 10:16:37;;;;;;;20.42;6.28;;;;;;;;;;5020922;28;20112;-65
2021/06/27 10:19:03;;;;;;;17.35;7.15;;;;;;;;;;5029609;28;20045;-65
2021/06/27 10:21:30;;;;;;;20.65;6.18;;;;;;;;;;5014052;28;20069;-65
2021/06/27 10:23:56;;;;;;;18.48;6.35;;;;;;;;;;5045624;28;20640;-66
2021/06/27 10:26:23;;;;;;;16.55;6.32;;;;;;;;;;5031308;28;20069;-65
2021/06/27 10:28:51;;;;;;;18.38;6.13;;;;;;;;;;5032041;28;20038;-65
2021/06/27 10:31:19;;;;;;;12.23;5.28;;;;;;;;;;5028537;28;20033;-65
2021/06/27 10:33:47;;;;;;;15.85;6.20;;;;;;;;;;5044167;28;20052;-65
2021/06/27 10:36:36;;;;;;;16.02;6.10;;;;;;;;;;5045368;28;20497;-65
2021/06/27 10:39:07;;;;;;;15.15;5.75;;;;;;;;;;5022968;28;20108;-65
2021/06/27 10:41:49;;;;;;;15.70;6.18;;;;;;;;;;5030657;28;20856;-64
2021/06/27 10:44:16;;;;;;;15.60;5.65;;;;;;;;;;5028088;28;20033;-65
2021/06/27 10:46:48;;;;;;;17.50;5.65;;;;;;;;;;5029321;28;20105;-65
2021/06/27 10:49:32;;;;;;;13.85;5.30;;;;;;;;;;5031254;28;20057;-65
2021/06/27 10:52:05;;;;;;;14.70;5.47;;;;;;;;;;5030616;28;20184;-65
2021/06/27 10:54:39;;;;;;;12.80;5.10;;;;;;;;;;5027627;28;21351;-65
2021/06/27 10:57:05;;;;;;;12.70;5.15;;;;;;;;;;5001084;28;20616;-65
2021/06/27 11:00:01;;;;;;;13.65;5.45;;;;;;;;;;5028377;28;20038;-66
2021/06/27 11:02:42;;;;;;;15.50;6.28;;;;;;;;;;5030389;28;20038;-66
2021/06/27 11:05:40;;;;;;;12.57;5.20;;;;;;;;;;5030085;28;20049;-65
2021/06/27 11:08:06;;;;;;;14.45;5.53;;;;;;;;;;5026155;28;20930;-64
2021/06/27 11:10:36;;;;;;;14.60;5.32;;;;;;;;;;5016784;28;20536;-65
2021/06/27 11:13:01;;;;;;;13.57;5.38;;;;;;;;;;5033514;28;20124;-65
2021/06/27 11:15:59;;;;;;;11.27;5.22;;;;;;;;;;5032012;28;20479;-64
2021/06/27 11:18:39;;;;;;;13.45;5.55;;;;;;;;;;5032729;28;20518;-65
2021/06/27 11:21:07;;;;;;;14.95;5.32;;;;;;;;;;5032630;28;20065;-65
2021/06/27 11:23:54;;;;;;;11.52;4.50;;;;;;;;;;5033411;28;20037;-65
2021/06/27 11:26:38;;;;;;;12.38;4.95;;;;;;;;;;5032171;28;20195;-65
2021/06/27 11:29:22;;;;;;;11.38;4.57;;;;;;;;;;5031548;28;20032;-64
2021/06/27 11:31:49;;;;;;;12.68;4.82;;;;;;;;;;5032926;28;20029;-64
2021/06/27 11:34:25;;;;;;;10.32;4.57;;;;;;;;;;5047162;28;20049;-65
2021/06/27 11:36:51;;;;;;;12.10;4.75;;;;;;;;;;5031698;28;20656;-64
2021/06/27 11:39:42;;;;;;;11.77;4.85;;;;;;;;;;5032891;28;20034;-64
2021/06/27 11:42:30;;;;;;;9.35;4.72;;;;;;;;;;5032735;28;20033;-65
2021/06/27 11:45:05;;;;;;;10.00;4.65;;;;;;;;;;5047186;28;20042;-64
2021/06/27 11:47:35;;;;;;;10.45;4.38;;;;;;;;;;5031761;28;20148;-64
2021/06/27 11:50:13;;;;;;;11.50;4.32;;;;;;;;;;5023829;28;20037;-64
2021/06/27 11:52:38;;;;;;;11.70;4.68;;;;;;;;;;5032203;28;20040;-64
2021/06/27 11:55:05;;;;;;;10.25;4.57;;;;;;;;;;5031966;28;20079;-65
2021/06/27 11:57:41;;;;;;;10.52;4.40;;;;;;;;;;5016943;28;20037;-65
2021/06/27 12:00:09;;;;;;;10.93;5.03;;;;;;;;;;5031423;28;20045;-65
2021/06/27 12:02:36;;;;;;;10.25;4.53;;;;;;;;;;5023434;28;20054;-64
2021/06/27 12:05:02;;;;;;;10.73;4.32;;;;;;;;;;5032105;28;20030;-64
2021/06/27 12:07:36;;;;;;;10.27;4.32;;;;;;;;;;5006736;28;20125;-64
2021/06/27 12:10:11;;;;;;;8.55;4.28;;;;;;;;;;5024126;28;20482;-64
2021/06/27 12:12:39;;;;;;;9.45;4.30;;;;;;;;;;5031722;28;20038;-64
2021/06/27 12:15:27;;;;;;;12.02;5.22;;;;;;;;;;5022565;28;20580;-64
2021/06/27 12:18:03;;;;;;;9.18;3.90;;;;;;;;;;5005735;28;20128;-64
2021/06/27 12:20:31;;;;;;;10.70;4.40;;;;;;;;;;5032046;28;20044;-64
2021/06/27 12:22:57;;;;;;;7.93;3.75;;;;;;;;;;5016702;28;20042;-64
2021/06/27 12:25:34;;;;;;;9.15;3.97;;;;;;;;;;5019562;28;20077;-64
2021/06/27 12:28:03;;;;;;;9.50;3.90;;;;;;;;;;5031979;28;20573;-64
2021/06/27 12:30:50;;;;;;;10.43;4.40;;;;;;;;;;5031121;28;20025;-64
2021/06/27 12:33:19;;;;;;;10.77;4.40;;;;;;;;;;5031757;28;20041;-64
2021/06/27 12:35:45;;;;;;;9.80;4.32;;;;;;;;;;5016181;28;20044;-64
2021/06/27 12:38:12;;;;;;;11.40;4.95;;;;;;;;;;5030759;28;20034;-65
2021/06/27 12:40:41;;;;;;;9.48;3.83;;;;;;;;;;5031788;28;20026;-64
2021/06/27 12:43:28;;;;;;;9.68;4.22;;;;;;;;;;5023689;28;20084;-63
2021/06/27 12:46:17;;;;;;;9.30;3.78;;;;;;;;;;5031118;28;20038;-64
2021/06/27 12:48:47;;;;;;;9.80;4.30;;;;;;;;;;5031829;28;20046;-61
2021/06/27 12:51:30;;;;;;;8.63;3.60;;;;;;;;;;5016066;28;20062;-62
2021/06/27 12:54:03;;;;;;;10.43;4.10;;;;;;;;;;5029806;28;20281;-62
2021/06/27 12:56:41;;;;;;;7.93;3.50;;;;;;;;;;5030572;28;20041;-62
2021/06/27 12:59:07;;;;;;;8.63;3.83;;;;;;;;;;5030145;28;20030;-62
2021/06/27 13:02:10;;;;;;;8.45;3.55;;;;;;;;;;5030731;28;20034;-62
2021/06/27 13:04:41;;;;;;;9.93;3.28;;;;;;;;;;5031614;28;20044;-62
2021/06/27 13:07:14;;;;;;;7.15;3.40;;;;;;;;;;5030019;28;20034;-62
2021/06/27 13:10:01;;;;;;;8.68;3.80;;;;;;;;;;5030961;28;20033;-62
2021/06/27 13:12:26;;;;;;;8.02;3.42;;;;;;;;;;5029695;28;20945;-62
2021/06/27 13:15:07;;;;;;;8.70;3.88;;;;;;;;;;5047464;28;20092;-62
2021/06/27 13:18:05;;;;;;;8.73;4.03;;;;;;;;;;5031061;28;20042;-62
2021/06/27 13:20:36;;;;;;;6.88;3.30;;;;;;;;;;5024879;28;20137;-62
2021/06/27 13:23:12;;;;;;;7.65;3.25;;;;;;;;;;5031371;28;20045;-62
2021/06/27 13:25:43;;;;;;;10.38;3.92;;;;;;;;;;5030661;28;20045;-62
2021/06/27 13:28:13;;;;;;;;;;;;;;;;;;5030669;28;20073;-62
2021/06/27 13:31:15;;;;;;;8.15;3.53;;;;;;;;;;5044094;28;19917;-62
2021/06/27 13:33:42;;;;;;;;;;;;;;;;;;4980680;28;20284;-62
2021/06/27 13:36:14;;;;;;;7.97;3.50;;;;;;;;;;5022624;28;19956;-62
2021/06/27 13:38:49;;;;;;;7.03;3.35;;;;;;;;;;5028290;28;20550;-62
2021/06/27 13:41:20;;;;;;;8.82;3.88;;;;;;;;;;5044199;28;20089;-62
2021/06/27 13:43:46;;;;;;;;;;;;;;;;;;5016442;28;21100;-62
2021/06/27 13:46:12;;;;;;;7.25;3.20;;;;;;;;;;5031077;28;19921;-62
2021/06/27 13:48:37;;;;;;;6.43;3.10;;;;;;;;;;5046885;28;20029;-61
2021/06/27 13:51:03;;;;;;;6.00;3.08;;;;;;;;;;5029687;28;20038;-62
2021/06/27 13:53:29;;;;;;;7.63;3.10;;;;;;;;;;5045050;28;20554;-62
2021/06/27 13:58:38;;;;;;;5.57;3.20;;;;;;;;;;5031250;28;20124;-62
2021/06/27 14:01:05;;;;;;;8.50;3.00;;;;;;;;;;5029207;28;20034;-62
2021/06/27 14:03:30;;;;;;;8.40;3.47;;;;;;;;;;5030600;28;20508;-62
2021/06/27 14:05:55;;;;;;;6.28;2.80;;;;;;;;;;5045764;28;20061;-62
2021/06/27 14:08:21;;;;;;;7.68;3.10;;;;;;;;;;5031222;28;20065;-62
2021/06/27 14:10:47;;;;;;;4.80;2.58;;;;;;;;;;5044640;28;20038;-62
2021/06/27 14:13:12;;;;;;;5.80;2.90;;;;;;;;;;5028734;28;20045;-62
2021/06/27 14:15:37;;;;;;;7.57;2.80;;;;;;;;;;5030573;28;20037;-62
2021/06/27 14:18:03;;;;;;;4.90;2.15;;;;;;;;;;5045423;28;20034;-62
2021/06/27 14:20:29;;;;;;;7.57;2.80;;;;;;;;;;5030204;28;20030;-62
2021/06/27 14:22:55;;;;;;;5.85;2.70;;;;;;;;;;5029644;28;20038;-62
2021/06/27 14:25:21;;;;;;;3.25;1.60;;;;;;;;;;5030040;28;20038;-62
2021/06/27 14:27:46;;;;;;;1.67;0.88;;;;;;;;;;5013516;28;20038;-62
2021/06/27 14:30:13;;;;;;;3.38;1.40;;;;;;;;;;5030058;28;20041;-62
2021/06/27 14:32:38;;;;;;;5.53;2.20;;;;;;;;;;5031459;28;20046;-62
2021/06/27 14:35:05;;;;;;;3.97;1.73;;;;;;;;;;5029675;28;20034;-62
2021/06/27 14:37:32;;;;;;;5.15;2.80;;;;;;;;;;5029340;28;20033;-62
2021/06/27 14:39:57;;;;;;;2.08;1.08;;;;;;;;;;5020398;28;20042;-62
2021/06/27 14:42:23;;;;;;;1.98;1.23;;;;;;;;;;5019307;28;20034;-62
2021/06/27 14:44:48;;;;;;;5.68;2.40;;;;;;;;;;5020600;28;20038;-62
2021/06/27 14:47:14;;;;;;;6.40;3.08;;;;;;;;;;5048178;28;20057;-62
2021/06/27 14:49:39;;;;;;;4.45;2.22;;;;;;;;;;5034463;28;20018;-62
2021/06/27 14:52:05;;;;;;;3.25;1.83;;;;;;;;;;5031858;28;20034;-62
2021/06/27 14:54:30;;;;;;;2.97;1.70;;;;;;;;;;5015357;28;20350;-62